Time;durP1;ratioP1;P1;durP2;ratioP2;P2;SDS_P1;SDS_P2;PMS_P1;PMS_P2;Temp;Humidity;BMP_temperature;BMP_pressure;BME280_temperature;BME280_humidity;BME280_pressure;Samples;Min_cycle;Max_cycle;Signal;HPM_P1;HPM_P2
2021/12/13 00:01:34;;;;;;;;;17.50;17.50;;;;;-146.39;100.00;62182.44;6315484;20;2827396;-39
2021/12/13 00:04:19;;;;;;;;;18.33;16.33;;;;;-146.39;100.00;62182.44;6282566;20;3562775;-38
2021/12/13 00:07:02;;;;;;;;;22.00;17.33;;;;;-146.39;100.00;62182.44;6312527;20;3587715;-39
2021/12/13 00:09:41;;;;;;;;;18.00;12.50;;;;;-146.39;100.00;62182.44;6311272;20;2805483;-41
2021/12/13 00:12:18;;;;;;;;;22.67;16.00;;;;;-146.39;100.00;62182.44;6279797;20;3565898;-40
2021/12/13 00:14:51;;;;;;;;;18.00;17.50;;;;;-146.39;100.00;62182.44;6282058;20;2826387;-39
2021/12/13 00:17:46;;;;;;;;;24.00;19.00;;;;;-146.39;100.00;62182.44;6283678;20;2824373;-39
2021/12/13 00:20:38;;;;;;;;;25.33;20.00;;;;;-146.39;100.00;62182.44;6278450;20;3572227;-39
2021/12/13 00:23:37;;;;;;;;;13.00;9.50;;;;;-146.39;100.00;62182.44;6285903;20;2763832;-39
2021/12/13 00:26:06;;;;;;;;;21.00;15.50;;;;;-146.39;100.00;62182.44;6283186;20;2819113;-39
2021/12/13 00:28:41;;;;;;;;;22.67;17.00;;;;;-146.39;100.00;62182.44;6280216;20;3575462;-41
2021/12/13 00:31:46;;;;;;;;;20.33;20.33;;;;;-146.39;100.00;62182.44;6313685;20;3566982;-38
2021/12/13 00:34:48;;;;;;;;;21.67;16.33;;;;;-146.39;100.00;62182.44;6312920;20;3570156;-39
2021/12/13 00:37:59;;;;;;;;;17.67;16.67;;;;;-146.39;100.00;62182.44;6314022;20;3552305;-39
2021/12/13 00:40:35;;;;;;;;;25.50;19.50;;;;;-146.39;100.00;62182.44;6277732;20;2836722;-38
2021/12/13 00:43:22;;;;;;;;;24.00;20.00;;;;;-146.39;100.00;62182.44;6279473;20;3561696;-40
2021/12/13 00:46:00;;;;;;;;;28.00;21.00;;;;;-146.39;100.00;62182.44;6283601;20;2828382;-39
2021/12/13 00:48:34;;;;;;;;;22.50;18.00;;;;;-146.39;100.00;62182.44;6283926;20;2819127;-38
2021/12/13 00:51:10;;;;;;;;;23.00;20.50;;;;;-146.39;100.00;62182.44;6281497;20;2844060;-39
2021/12/13 00:53:47;;;;;;;;;25.67;19.00;;;;;-146.39;100.00;62182.44;6283407;20;3563888;-39
2021/12/13 00:56:53;;;;;;;;;28.33;22.33;;;;;-146.39;100.00;62182.44;6310403;20;3571074;-39
2021/12/13 00:59:32;;;;;;;;;22.33;19.33;;;;;-146.39;100.00;62182.44;6312141;20;3553507;-38
2021/12/13 01:02:30;;;;;;;;;20.00;15.00;;;;;-146.39;100.00;62182.44;6313487;20;3532560;-39
2021/12/13 01:05:11;;;;;;;;;23.00;20.50;;;;;-146.39;100.00;62182.44;6313683;20;2825262;-39
2021/12/13 01:08:43;;;;;;;;;24.00;22.00;;;;;-146.39;100.00;62182.44;6281142;20;3573143;-38
2021/12/13 01:11:40;;;;;;;;;29.33;23.00;;;;;-146.39;100.00;62182.44;6275873;20;3575308;-41
2021/12/13 01:14:33;;;;;;;;;25.00;18.50;;;;;-146.39;100.00;62182.44;6311245;20;2830450;-38
2021/12/13 01:17:44;;;;;;;;;22.33;19.67;;;;;-146.39;100.00;62182.44;6282393;20;3575361;-39
2021/12/13 01:20:55;;;;;;;;;26.50;22.00;;;;;-146.39;100.00;62182.44;6278829;20;2835768;-39
2021/12/13 01:23:41;;;;;;;;;28.00;24.00;;;;;-146.39;100.00;62182.44;6282295;20;3579499;-39
2021/12/13 01:26:36;;;;;;;;;22.67;17.33;;;;;-146.39;100.00;62182.44;6279966;20;3574193;-40
2021/12/13 01:29:21;;;;;;;;;23.50;21.00;;;;;-146.39;100.00;62182.44;6308248;20;2500266;-39
2021/12/13 01:32:00;;;;;;;;;24.00;16.00;;;;;-146.39;100.00;62182.44;6283627;20;2823271;-39
2021/12/13 01:34:35;;;;;;;;;29.00;25.00;;;;;-146.39;100.00;62182.44;6282227;20;3564815;-39
2021/12/13 01:37:15;;;;;;;;;33.50;22.50;;;;;-146.39;100.00;62182.44;6281807;20;2843113;-39
2021/12/13 01:39:52;;;;;;;;;16.00;14.00;;;;;-146.39;100.00;62182.44;6280790;20;2804857;-39
2021/12/13 01:42:29;;;;;;;;;28.67;22.67;;;;;-146.39;100.00;62182.44;6283256;20;3571069;-39
2021/12/13 01:45:05;;;;;;;;;23.00;20.50;;;;;-146.39;100.00;62182.44;6279615;20;2826452;-40
2021/12/13 01:47:54;;;;;;;;;21.33;16.67;;;;;-146.39;100.00;62182.44;6281322;20;3564856;-41
2021/12/13 01:50:31;;;;;;;;;26.00;22.50;;;;;-146.39;100.00;62182.44;6278163;20;2826410;-38
2021/12/13 01:53:01;;;;;;;;;33.00;22.00;;;;;-146.39;100.00;62182.44;6281214;20;3585691;-38
2021/12/13 01:55:41;;;;;;;;;23.50;21.50;;;;;-146.39;100.00;62182.44;6282445;20;2825241;-39
2021/12/13 02:01:14;;;;;;;;;18.50;16.00;;;;;-146.39;100.00;62182.44;6282012;20;2827315;-40
2021/12/13 02:03:57;;;;;;;;;24.00;19.67;;;;;-146.39;100.00;62182.44;6281146;20;3562821;-39
2021/12/13 02:06:45;;;;;;;;;21.67;20.00;;;;;-146.39;100.00;62182.44;6311996;20;3558700;-40
2021/12/13 02:09:26;;;;;;;;;23.33;18.33;;;;;-146.39;100.00;62182.44;6277819;20;3562787;-39
2021/12/13 02:12:07;;;;;;;;;25.00;24.00;;;;;-146.39;100.00;62182.44;6313425;20;2839364;-38
2021/12/13 02:14:36;;;;;;;;;25.67;20.00;;;;;-146.39;100.00;62182.44;6281310;20;3570026;-40
2021/12/13 02:17:20;;;;;;;;;24.67;19.33;;;;;-146.39;100.00;62182.44;6311371;20;3557577;-39
2021/12/13 02:20:00;;;;;;;;;19.67;19.33;;;;;-146.39;100.00;62182.44;6309648;20;3577392;-39
2021/12/13 02:22:40;;;;;;;;;22.00;18.00;;;;;-146.39;100.00;62182.44;6312554;20;2833611;-38
2021/12/13 02:25:23;;;;;;;;;23.67;17.00;;;;;-146.39;100.00;62182.44;6278217;20;3551351;-38
2021/12/13 02:28:16;;;;;;;;;25.67;16.00;;;;;-146.39;100.00;62182.44;6310070;20;3564996;-40
2021/12/13 02:30:54;;;;;;;;;22.00;19.50;;;;;-146.39;100.00;62182.44;6309732;20;2827513;-39
2021/12/13 02:33:58;;;;;;;;;20.00;16.33;;;;;-146.39;100.00;62182.44;6280100;20;3552447;-41
2021/12/13 02:36:42;;;;;;;;;22.00;19.67;;;;;-146.39;100.00;62182.44;6310340;20;3569040;-38
2021/12/13 02:39:25;;;;;;;;;22.50;19.00;;;;;-146.39;100.00;62182.44;6281703;20;2826407;-40
2021/12/13 02:41:54;;;;;;;;;26.50;25.50;;;;;-146.39;100.00;62182.44;6281917;20;2832681;-40
2021/12/13 02:44:27;;;;;;;;;23.00;23.00;;;;;-146.39;100.00;62182.44;6278001;20;2500327;-41
2021/12/13 02:47:01;;;;;;;;;30.33;26.00;;;;;-146.39;100.00;62182.44;6280527;20;3581687;-39
2021/12/13 02:49:33;;;;;;;;;21.00;18.00;;;;;-146.39;100.00;62182.44;6278687;20;3573184;-40
2021/12/13 02:52:11;;;;;;;;;27.00;25.00;;;;;-146.39;100.00;62182.44;6274414;20;2500267;-39
2021/12/13 02:54:48;;;;;;;;;24.33;22.00;;;;;-146.39;100.00;62182.44;6280779;20;3562727;-40
2021/12/13 02:57:46;;;;;;;;;28.00;21.00;;;;;-146.39;100.00;62182.44;6280279;20;2828394;-39
2021/12/13 03:00:26;;;;;;;;;33.50;25.50;;;;;-146.39;100.00;62182.44;6274565;20;2845081;-39
2021/12/13 03:03:01;;;;;;;;;33.00;23.00;;;;;-146.39;100.00;62182.44;6280995;20;3591894;-39
2021/12/13 03:05:39;;;;;;;;;27.00;22.33;;;;;-146.39;100.00;62182.44;6280637;20;3563776;-39
2021/12/13 03:08:18;;;;;;;;;27.00;22.00;;;;;-146.39;100.00;62182.44;6310592;20;3568972;-39
2021/12/13 03:10:56;;;;;;;;;27.50;24.00;;;;;-146.39;100.00;62182.44;6304627;20;2498185;-40
2021/12/13 03:13:25;;;;;;;;;30.33;18.00;;;;;-146.39;100.00;62182.44;6277008;20;3588871;-39
2021/12/13 03:16:18;;;;;;;;;32.00;25.00;;;;;-146.39;100.00;62182.44;6275198;20;2500291;-42
2021/12/13 03:19:30;;;;;;;;;19.67;19.67;;;;;-146.39;100.00;62182.44;6275065;20;3563739;-39
2021/12/13 03:22:55;;;;;;;;;29.67;23.33;;;;;-146.39;100.00;62182.44;6304177;20;3584673;-39
2021/12/13 03:26:14;;;;;;;;;33.00;24.00;;;;;-146.39;100.00;62182.44;6279058;20;2836736;-40
2021/12/13 03:29:10;;;;;;;;;19.00;18.00;;;;;-146.39;100.00;62182.44;6276778;20;3554459;-39
2021/12/13 03:31:52;;;;;;;;;31.00;23.00;;;;;-146.39;100.00;62182.44;6310846;20;2827445;-38
2021/12/13 03:34:35;;;;;;;;;23.67;20.00;;;;;-146.39;100.00;62182.44;6280084;20;3564859;-39
2021/12/13 03:37:15;;;;;;;;;25.00;21.00;;;;;-146.39;100.00;62182.44;6306132;20;2500942;-39
2021/12/13 03:39:59;;;;;;;;;25.00;21.00;;;;;-146.39;100.00;62182.44;6277216;20;2841036;-39
2021/12/13 03:42:42;;;;;;;;;29.00;19.50;;;;;-146.39;100.00;62182.44;6284518;20;2836817;-38
2021/12/13 03:45:25;;;;;;;;;15.40;12.60;;;;;-146.39;100.00;62182.44;6309763;20;2799198;-39
2021/12/13 03:47:58;;;;;;;;;25.00;21.00;;;;;-146.39;100.00;62182.44;6285446;20;3564940;-39
2021/12/13 03:50:40;;;;;;;;;26.33;21.00;;;;;-146.39;100.00;62182.44;6315350;20;3561706;-39
2021/12/13 03:53:19;;;;;;;;;31.50;23.00;;;;;-146.39;100.00;62182.44;6314804;20;2850232;-42
2021/12/13 03:56:01;;;;;;;;;21.00;19.00;;;;;-146.39;100.00;62182.44;6287353;20;2835820;-38
2021/12/13 03:58:50;;;;;;;;;27.50;25.00;;;;;-146.39;100.00;62182.44;6282152;20;2500325;-39
2021/12/13 04:01:48;;;;;;;;;29.67;21.00;;;;;-146.39;100.00;62182.44;6286104;20;3571158;-40
2021/12/13 04:04:46;;;;;;;;;33.50;24.50;;;;;-146.39;100.00;62182.44;6284369;20;2853371;-39
2021/12/13 04:07:31;;;;;;;;;29.67;28.67;;;;;-146.39;100.00;62182.44;6283464;20;3573190;-38
2021/12/13 04:10:25;;;;;;;;;36.00;31.00;;;;;-146.39;100.00;62182.44;6280892;20;2500362;-39
2021/12/13 04:13:00;;;;;;;;;37.50;29.00;;;;;-146.39;100.00;62182.44;6281055;20;2861739;-40
2021/12/13 04:19:26;;;;;;;;;31.00;24.00;;;;;-146.39;100.00;62182.44;6282049;20;2500550;-39
2021/12/13 04:21:58;;;;;;;;;37.00;29.50;;;;;-146.39;100.00;62182.44;6282396;20;2856531;-40
2021/12/13 04:24:49;;;;;;;;;55.00;32.67;;;;;-146.39;100.00;62182.44;6280105;20;3631528;-39
2021/12/13 04:27:29;;;;;;;;;29.00;22.50;;;;;-146.39;100.00;62182.44;6316655;20;2828376;-39
2021/12/13 04:30:22;;;;;;;;;25.67;24.00;;;;;-146.39;100.00;62182.44;6279558;20;3568991;-40
2021/12/13 04:32:59;;;;;;;;;28.00;23.50;;;;;-146.39;100.00;62182.44;6280633;20;2832562;-39
2021/12/13 04:35:30;;;;;;;;;29.00;23.00;;;;;-146.39;100.00;62182.44;6280245;20;3564821;-39
2021/12/13 04:38:04;;;;;;;;;23.50;20.00;;;;;-146.39;100.00;62182.44;6311572;20;2498182;-38
2021/12/13 04:40:39;;;;;;;;;35.33;19.67;;;;;-146.39;100.00;62182.44;6285082;20;3601386;-39
2021/12/13 04:43:16;;;;;;;;;27.00;22.00;;;;;-146.39;100.00;62182.44;6280175;20;3566885;-39
2021/12/13 04:46:00;;;;;;;;;21.00;18.33;;;;;-146.39;100.00;62182.44;6312859;20;3574217;-39
2021/12/13 04:48:34;;;;;;;;;33.00;22.00;;;;;-146.39;100.00;62182.44;6311758;20;3573171;-38
2021/12/13 04:51:14;;;;;;;;;21.00;18.00;;;;;-146.39;100.00;62182.44;6280027;20;3559638;-39
2021/12/13 04:53:50;;;;;;;;;35.67;21.00;;;;;-146.39;100.00;62182.44;6310484;20;3599217;-39
2021/12/13 04:56:28;;;;;;;;;29.00;19.67;;;;;-146.39;100.00;62182.44;6282380;20;3583575;-39
2021/12/13 04:59:00;;;;;;;;;29.00;26.50;;;;;-146.39;100.00;62182.44;6277928;20;2501084;-40
2021/12/13 05:01:29;;;;;;;;;28.00;26.50;;;;;-146.39;100.00;62182.44;6280725;20;2822141;-41
2021/12/13 05:04:03;;;;;;;;;48.00;32.00;;;;;-146.39;100.00;62182.44;6279848;20;2875365;-40
2021/12/13 05:06:40;;;;;;;;;47.33;33.67;;;;;-146.39;100.00;62182.44;6282565;20;2879407;-39
2021/12/13 05:09:15;;;;;;;;;39.00;32.00;;;;;-146.39;100.00;62182.44;6313004;20;2852334;-39
2021/12/13 05:12:05;;;;;;;;;40.50;35.00;;;;;-146.39;100.00;62182.44;6281174;20;2500415;-39
2021/12/13 05:14:53;;;;;;;;;30.50;23.00;;;;;-146.39;100.00;62182.44;6283368;20;2844030;-40
2021/12/13 05:17:47;;;;;;;;;34.00;24.00;;;;;-146.39;100.00;62182.44;6280268;20;3586677;-41
2021/12/13 05:20:37;;;;;;;;;65.00;50.00;;;;;-146.39;100.00;62182.44;6279238;20;2865899;-41
2021/12/13 05:23:13;;;;;;;;;67.00;52.33;;;;;-146.39;100.00;62182.44;6280462;20;2875241;-41
2021/12/13 05:26:07;;;;;;;;;92.67;66.67;;;;;-146.39;100.00;62182.44;6312474;20;3667918;-40
2021/12/13 05:28:44;;;;;;;;;70.67;51.33;;;;;-146.39;100.00;62182.44;6309220;20;3631733;-40
2021/12/13 05:31:23;;;;;;;;;35.00;33.00;;;;;-146.39;100.00;62182.44;6311503;20;2844034;-40
2021/12/13 05:34:04;;;;;;;;;48.50;39.00;;;;;-146.39;100.00;62182.44;6279366;20;2500341;-40
2021/12/13 05:36:36;;;;;;;;;32.50;29.50;;;;;-146.39;100.00;62182.44;6280373;20;2853494;-40
2021/12/13 05:39:16;;;;;;;;;38.50;28.00;;;;;-146.39;100.00;62182.44;6279363;20;2852450;-38
2021/12/13 05:42:11;;;;;;;;;37.50;26.00;;;;;-146.39;100.00;62182.44;6282275;20;2863203;-40
2021/12/13 05:44:46;;;;;;;;;37.00;28.50;;;;;-146.39;100.00;62182.44;6281879;20;2865217;-39
2021/12/13 05:47:27;;;;;;;;;25.00;21.00;;;;;-146.39;100.00;62182.44;6281544;20;2827348;-39
2021/12/13 05:49:56;;;;;;;;;32.00;29.00;;;;;-146.39;100.00;62182.44;6278660;20;2500236;-40
2021/12/13 05:52:39;;;;;;;;;33.00;26.00;;;;;-146.39;100.00;62182.44;6279499;20;2852398;-39
2021/12/13 05:55:13;;;;;;;;;34.50;29.00;;;;;-146.39;100.00;62182.44;6276528;20;2500247;-40
2021/12/13 05:57:50;;;;;;;;;37.00;31.00;;;;;-146.39;100.00;62182.44;6276943;20;2500326;-39
2021/12/13 06:00:31;;;;;;;;;38.50;32.00;;;;;-146.39;100.00;62182.44;6277941;20;2500252;-40
2021/12/13 06:03:17;;;;;;;;;36.00;27.50;;;;;-146.39;100.00;62182.44;6276409;20;2500261;-39
2021/12/13 06:05:52;;;;;;;;;37.67;35.67;;;;;-146.39;100.00;62182.44;6275891;20;2859659;-39
2021/12/13 06:08:39;;;;;;;;;48.67;38.00;;;;;-146.39;100.00;62182.44;6307976;20;2875341;-39
2021/12/13 06:11:19;;;;;;;;;63.33;45.00;;;;;-146.39;100.00;62182.44;6311550;20;3630473;-40
2021/12/13 06:13:58;;;;;;;;;156.50;116.50;;;;;-146.39;100.00;62182.44;6308631;20;3593957;-40
2021/12/13 06:17:30;;;;;;;;;167.00;124.00;;;;;-146.39;100.00;62182.44;6308384;20;4432490;-40
2021/12/13 06:20:12;;;;;;;;;122.67;91.67;;;;;-146.39;100.00;62182.44;6307681;20;3683528;-39
2021/12/13 06:22:41;;;;;;;;;85.00;64.00;;;;;-146.39;100.00;62182.44;6279414;20;2889856;-40
2021/12/13 06:25:20;;;;;;;;;81.67;64.00;;;;;-146.39;100.00;62182.44;6279452;20;2883623;-39
2021/12/13 06:27:55;;;;;;;;;64.67;42.67;;;;;-146.39;100.00;62182.44;6310709;20;2886892;-39
2021/12/13 06:30:29;;;;;;;;;32.50;27.50;;;;;-146.39;100.00;62182.44;6306274;20;2500267;-39
2021/12/13 06:33:10;;;;;;;;;41.50;31.50;;;;;-146.39;100.00;62182.44;6274661;20;2500316;-40
2021/12/13 06:35:48;;;;;;;;;32.50;25.00;;;;;-146.39;100.00;62182.44;6275898;20;2846090;-39
2021/12/13 06:38:19;;;;;;;;;57.00;45.50;;;;;-146.39;100.00;62182.44;6278767;20;2858603;-41
2021/12/13 06:41:09;;;;;;;;;36.50;27.00;;;;;-146.39;100.00;62182.44;6278676;20;2500258;-40
2021/12/13 06:43:53;;;;;;;;;46.00;38.50;;;;;-146.39;100.00;62182.44;6278083;20;2859657;-42
2021/12/13 06:46:25;;;;;;;;;48.50;38.00;;;;;-146.39;100.00;62182.44;6279593;20;2866935;-39
2021/12/13 06:49:07;;;;;;;;;50.00;38.50;;;;;-146.39;100.00;62182.44;6274134;20;2500243;-39
2021/12/13 06:51:45;;;;;;;;;37.50;33.00;;;;;-146.39;100.00;62182.44;6276013;20;2500377;-40
2021/12/13 06:54:54;;;;;;;;;32.50;28.50;;;;;-146.39;100.00;62182.44;6275102;20;2500269;-39
2021/12/13 06:57:43;;;;;;;;;42.00;38.00;;;;;-146.39;100.00;62182.44;6275429;20;2859623;-39
2021/12/13 07:00:35;;;;;;;;;43.00;38.00;;;;;-146.39;100.00;62182.44;6274094;20;2500257;-40
2021/12/13 07:03:12;;;;;;;;;46.33;32.33;;;;;-146.39;100.00;62182.44;6276291;20;2886731;-39
2021/12/13 07:05:53;;;;;;;;;37.50;34.50;;;;;-146.39;100.00;62182.44;6306414;20;2857671;-39
2021/12/13 07:08:36;;;;;;;;;47.50;37.00;;;;;-146.39;100.00;62182.44;6277412;20;2865888;-39
2021/12/13 07:11:21;;;;;;;;;45.00;34.33;;;;;-146.39;100.00;62182.44;6277570;20;2869052;-40
2021/12/13 07:14:07;;;;;;;;;38.50;35.00;;;;;-146.39;100.00;62182.44;6303983;20;2500351;-39
2021/12/13 07:16:39;;;;;;;;;42.00;41.00;;;;;-146.39;100.00;62182.44;6278405;20;2861744;-41
2021/12/13 07:19:23;;;;;;;;;48.67;41.67;;;;;-146.39;100.00;62182.44;6282636;20;2875270;-40
2021/12/13 07:22:01;;;;;;;;;69.33;47.67;;;;;-146.39;100.00;62182.44;6314704;20;2885726;-40
2021/12/13 07:24:43;;;;;;;;;57.00;47.00;;;;;-146.39;100.00;62182.44;6311928;20;2508670;-40
2021/12/13 07:27:35;;;;;;;;;58.50;46.00;;;;;-146.39;100.00;62182.44;6282940;20;2863895;-39
2021/12/13 07:30:16;;;;;;;;;57.33;44.00;;;;;-146.39;100.00;62182.44;6279361;20;2881585;-41
2021/12/13 07:33:03;;;;;;;;;53.00;37.50;;;;;-146.39;100.00;62182.44;6314159;20;2885707;-40
2021/12/13 07:35:45;;;;;;;;;57.67;40.33;;;;;-146.39;100.00;62182.44;6280116;20;2881539;-41
2021/12/13 07:38:21;;;;;;;;;56.00;47.00;;;;;-146.39;100.00;62182.44;6314043;20;2844412;-39
2021/12/13 07:41:01;;;;;;;;;49.67;37.67;;;;;-146.39;100.00;62182.44;6286406;20;3620024;-40
2021/12/13 07:43:44;;;;;;;;;49.50;41.50;;;;;-146.39;100.00;62182.44;6313751;20;2877426;-40
2021/12/13 07:46:19;;;;;;;;;78.00;61.00;;;;;-146.39;100.00;62182.44;6282336;20;3638790;-40
2021/12/13 07:48:52;;;;;;;;;84.00;62.50;;;;;-146.39;100.00;62182.44;6313330;20;3586776;-40
2021/12/13 07:51:33;;;;;;;;;67.50;52.50;;;;;-146.39;100.00;62182.44;6314268;20;2877324;-40
2021/12/13 07:54:17;;;;;;;;;60.33;39.33;;;;;-146.39;100.00;62182.44;6278342;20;3632579;-40
2021/12/13 07:56:53;;;;;;;;;64.00;46.00;;;;;-146.39;100.00;62182.44;6313313;20;2874231;-41
2021/12/13 07:59:36;;;;;;;;;67.00;53.00;;;;;-146.39;100.00;62182.44;6281419;20;2866904;-41
2021/12/13 08:02:33;;;;;;;;;60.50;48.00;;;;;-146.39;100.00;62182.44;6282168;20;2858617;-40
2021/12/13 08:05:13;;;;;;;;;68.00;47.50;;;;;-146.39;100.00;62182.44;6283309;20;2866977;-41
2021/12/13 08:07:59;;;;;;;;;75.00;54.50;;;;;-146.39;100.00;62182.44;6280720;20;2874295;-40
2021/12/13 08:10:39;;;;;;;;;71.50;54.50;;;;;-146.39;100.00;62182.44;6279500;20;2496234;-40
2021/12/13 08:13:20;;;;;;;;;80.00;60.00;;;;;-146.39;100.00;62182.44;6282013;20;3630425;-40
2021/12/13 08:16:03;;;;;;;;;45.33;40.33;;;;;-146.39;100.00;62182.44;6310918;20;2873288;-41
2021/12/13 08:18:42;;;;;;;;;48.00;43.00;;;;;-146.39;100.00;62182.44;6311997;20;2866953;-41
2021/12/13 08:21:26;;;;;;;;;66.00;53.00;;;;;-146.39;100.00;62182.44;6281603;20;2859635;-40
2021/12/13 08:24:01;;;;;;;;;49.00;41.00;;;;;-146.39;100.00;62182.44;6282753;20;2871211;-40
2021/12/13 08:26:42;;;;;;;;;44.00;37.00;;;;;-146.39;100.00;62182.44;6310266;20;2854624;-40
2021/12/13 08:29:27;;;;;;;;;52.50;42.00;;;;;-146.39;100.00;62182.44;6279948;20;2856544;-40
2021/12/13 08:32:01;;;;;;;;;37.00;29.00;;;;;-146.39;100.00;62182.44;6282168;20;2846134;-40
2021/12/13 08:34:45;;;;;;;;;44.00;34.00;;;;;-146.39;100.00;62182.44;6278207;20;2857576;-40
2021/12/13 08:37:37;;;;;;;;;40.00;31.00;;;;;-146.39;100.00;62182.44;6281318;20;2854443;-41
2021/12/13 08:40:28;;;;;;;;;38.00;33.50;;;;;-146.39;100.00;62182.44;6279115;20;2500258;-40
2021/12/13 08:42:58;;;;;;;;;38.50;29.50;;;;;-146.39;100.00;62182.44;6279581;20;2500397;-41
2021/12/13 08:45:40;;;;;;;;;36.50;29.00;;;;;-146.39;100.00;62182.44;6281470;20;2858705;-42
2021/12/13 08:48:20;;;;;;;;;56.67;41.00;;;;;-146.39;100.00;62182.44;6282101;20;2870169;-41
2021/12/13 08:51:00;;;;;;;;;53.33;37.33;;;;;-146.39;100.00;62182.44;6313038;20;3635666;-40
2021/12/13 08:53:36;;;;;;;;;65.00;46.67;;;;;-146.39;100.00;62182.44;6311940;20;3635759;-42
2021/12/13 08:56:20;;;;;;;;;55.00;39.33;;;;;-146.39;100.00;62182.44;6312055;20;3632531;-41
2021/12/13 08:59:03;;;;;;;;;55.33;43.00;;;;;-146.39;100.00;62182.44;6310939;20;2882669;-41
2021/12/13 09:02:04;;;;;;;;;31.50;27.00;;;;;-146.39;100.00;62182.44;6313173;20;2876388;-41
2021/12/13 09:04:41;;;;;;;;;35.50;26.50;;;;;-146.39;100.00;62182.44;6281162;20;2866935;-40
2021/12/13 09:07:21;;;;;;;;;39.00;30.00;;;;;-146.39;100.00;62182.44;6280495;20;2856562;-41
2021/12/13 09:09:50;;;;;;;;;29.33;24.67;;;;;-146.39;100.00;62182.44;6279854;20;3580521;-41
2021/12/13 09:12:43;;;;;;;;;57.67;39.33;;;;;-146.39;100.00;62182.44;6282256;20;3639851;-41
2021/12/13 09:15:26;;;;;;;;;34.00;32.50;;;;;-146.39;100.00;62182.44;6310136;20;2854457;-41
2021/12/13 09:17:55;;;;;;;;;38.50;27.00;;;;;-146.39;100.00;62182.44;6280746;20;2860726;-51
2021/12/13 09:20:45;;;;;;;;;30.00;26.00;;;;;-146.39;100.00;62182.44;6278172;20;2852813;-50
2021/12/13 09:23:31;;;;;;;;;38.00;29.00;;;;;-146.39;100.00;62182.44;6278978;20;2863776;-46
2021/12/13 09:26:24;;;;;;;;;33.50;25.00;;;;;-146.39;100.00;62182.44;6278065;20;2846129;-48
2021/12/13 09:29:04;;;;;;;;;35.00;26.50;;;;;-146.39;100.00;62182.44;6280344;20;2855499;-49
2021/12/13 09:31:40;;;;;;;;;29.00;28.00;;;;;-146.39;100.00;62182.44;6278380;20;2500241;-47
2021/12/13 09:34:14;;;;;;;;;36.50;27.00;;;;;-146.39;100.00;62182.44;6280041;20;2859657;-51
2021/12/13 09:36:49;;;;;;;;;26.50;24.50;;;;;-146.39;100.00;62182.44;6278012;20;2850279;-47
2021/12/13 09:39:28;;;;;;;;;36.50;26.50;;;;;-146.39;100.00;62182.44;6278247;20;2868982;-47
2021/12/13 09:42:11;;;;;;;;;32.00;23.50;;;;;-146.39;100.00;62182.44;6277830;20;2494103;-49
2021/12/13 09:44:49;;;;;;;;;25.67;18.33;;;;;-146.39;100.00;62182.44;6281138;20;3566941;-47
2021/12/13 09:47:30;;;;;;;;;27.00;21.00;;;;;-146.39;100.00;62182.44;6278055;20;2500290;-46
2021/12/13 09:49:58;;;;;;;;;36.50;31.00;;;;;-146.39;100.00;62182.44;6281745;20;2855483;-48
2021/12/13 09:52:46;;;;;;;;;28.33;22.00;;;;;-146.39;100.00;62182.44;6280255;20;3575741;-46
2021/12/13 09:55:28;;;;;;;;;38.67;33.67;;;;;-146.39;100.00;62182.44;6275439;20;2864869;-48
2021/12/13 09:58:13;;;;;;;;;27.50;27.50;;;;;-146.39;100.00;62182.44;6311566;20;2841910;-46
2021/12/13 10:00:51;;;;;;;;;49.00;41.00;;;;;-146.39;100.00;62182.44;6279809;20;2862244;-47
2021/12/13 10:03:46;;;;;;;;;42.00;30.33;;;;;-146.39;100.00;62182.44;6312400;20;3620026;-47
2021/12/13 10:06:25;;;;;;;;;43.67;29.67;;;;;-146.39;100.00;62182.44;6280353;20;2868083;-46
2021/12/13 10:09:11;;;;;;;;;28.50;28.50;;;;;-146.39;100.00;62182.44;6310169;20;2841922;-45
2021/12/13 10:12:25;;;;;;;;;31.50;30.00;;;;;-146.39;100.00;62182.44;6279946;20;2853439;-49
2021/12/13 10:15:34;;;;;;;;;43.67;36.67;;;;;-146.39;100.00;62182.44;6276937;20;3602411;-47
2021/12/13 10:18:17;;;;;;;;;24.33;22.67;;;;;-146.39;100.00;62182.44;6310144;20;3563185;-49
2021/12/13 10:21:09;;;;;;;;;27.50;26.00;;;;;-146.39;100.00;62182.44;6279700;20;2850258;-47
2021/12/13 10:23:50;;;;;;;;;32.00;24.50;;;;;-146.39;100.00;62182.44;6280374;20;2858616;-49
2021/12/13 10:26:39;;;;;;;;;32.00;24.00;;;;;-146.39;100.00;62182.44;6279581;20;2857644;-48
2021/12/13 10:29:14;;;;;;;;;36.67;31.67;;;;;-146.39;100.00;62182.44;6276828;20;2865963;-46
2021/12/13 10:32:20;;;;;;;;;30.50;26.00;;;;;-146.39;100.00;62182.44;6310722;20;2854444;-49
2021/12/13 10:34:58;;;;;;;;;32.50;28.50;;;;;-146.39;100.00;62182.44;6276588;20;2857567;-47
2021/12/13 10:37:34;;;;;;;;;34.50;29.50;;;;;-146.39;100.00;62182.44;6279016;20;2844027;-51
2021/12/13 10:40:25;;;;;;;;;24.00;17.00;;;;;-146.39;100.00;62182.44;6276727;20;2500267;-46
2021/12/13 10:43:04;;;;;;;;;23.50;22.00;;;;;-146.39;100.00;62182.44;6279254;20;2833954;-48
2021/12/13 10:45:47;;;;;;;;;61.33;48.00;;;;;-146.39;100.00;62182.44;6277540;20;2890967;-47
2021/12/13 10:48:20;;;;;;;;;28.00;20.00;;;;;-146.39;100.00;62182.44;6312192;20;2848191;-47
2021/12/13 10:51:08;;;;;;;;;81.00;63.00;;;;;-146.39;100.00;62182.44;6279903;20;3642988;-46
2021/12/13 10:53:42;;;;;;;;;21.00;17.00;;;;;-146.39;100.00;62182.44;6315769;20;2832562;-48
2021/12/13 10:56:24;;;;;;;;;47.67;37.33;;;;;-146.39;100.00;62182.44;6281997;20;3621088;-46
2021/12/13 10:58:59;;;;;;;;;20.00;15.67;;;;;-146.39;100.00;62182.44;6312004;20;3555439;-47
2021/12/13 11:01:42;;;;;;;;;21.00;18.00;;;;;-146.39;100.00;62182.44;6317262;20;2833615;-46
2021/12/13 11:04:25;;;;;;;;;22.67;18.33;;;;;-146.39;100.00;62182.44;6284071;20;3560674;-47
2021/12/13 11:06:54;;;;;;;;;27.50;25.00;;;;;-146.39;100.00;62182.44;6283093;20;2840880;-49
2021/12/13 11:09:26;;;;;;;;;44.00;35.67;;;;;-146.39;100.00;62182.44;6283322;20;3621080;-47
2021/12/13 11:12:22;;;;;;;;;49.33;39.67;;;;;-146.39;100.00;62182.44;6314747;20;3623208;-45
2021/12/13 11:14:57;;;;;;;;;51.67;35.33;;;;;-146.39;100.00;62182.44;6314140;20;3634580;-46
2021/12/13 11:17:30;;;;;;;;;52.33;42.67;;;;;-146.39;100.00;62182.44;6314244;20;2864816;-45
2021/12/13 11:20:19;;;;;;;;;35.67;28.33;;;;;-146.39;100.00;62182.44;6313955;20;2851402;-46
2021/12/13 11:22:49;;;;;;;;;27.50;27.00;;;;;-146.39;100.00;62182.44;6315682;20;2844031;-47
2021/12/13 11:25:42;;;;;;;;;40.00;27.33;;;;;-146.39;100.00;62182.44;6283934;20;2865856;-48
2021/12/13 11:28:15;;;;;;;;;36.67;29.33;;;;;-146.39;100.00;62182.44;6313533;20;3605487;-46
2021/12/13 11:30:48;;;;;;;;;38.33;34.67;;;;;-146.39;100.00;62182.44;6315996;20;3610659;-47
2021/12/13 11:33:41;;;;;;;;;42.33;35.00;;;;;-146.39;100.00;62182.44;6282371;20;3604427;-46
2021/12/13 11:37:19;;;;;;;;;32.67;29.00;;;;;-146.39;100.00;62182.44;6312027;20;2848252;-46
2021/12/13 11:40:07;;;;;;;;;50.67;36.00;;;;;-146.39;100.00;62182.44;6313542;20;3633593;-46
2021/12/13 11:43:11;;;;;;;;;31.00;27.67;;;;;-146.39;100.00;62182.44;6314632;20;3589794;-47
2021/12/13 11:46:20;;;;;;;;;32.00;25.50;;;;;-146.39;100.00;62182.44;6284471;20;2855503;-48
2021/12/13 11:49:25;;;;;;;;;29.50;26.00;;;;;-146.39;100.00;62182.44;6282292;20;2832568;-46
2021/12/13 11:53:04;;;;;;;;;31.50;26.00;;;;;-146.39;100.00;62182.44;6280414;20;2500347;-49
2021/12/13 11:56:53;;;;;;;;;45.00;38.00;;;;;-146.39;100.00;62182.44;6281268;20;3609771;-48
2021/12/13 11:59:40;;;;;;;;;30.00;24.00;;;;;-146.39;100.00;62182.44;6312087;20;2855507;-48